createdAt,value
2017-07-29T00:00:53.876Z,98.05
2017-07-29T00:01:55.115Z,97.76
2017-07-29T00:02:56.361Z,97.85
2017-07-29T00:03:57.610Z,97.85
2017-07-29T00:04:58.881Z,98.05
2017-07-29T00:06:00.098Z,97.76
2017-07-29T00:07:01.440Z,98.14
2017-07-29T00:08:02.672Z,98.14
2017-07-29T00:09:03.906Z,97.85
2017-07-29T00:10:05.176Z,97.76
2017-07-29T00:11:06.395Z,97.95
2017-07-29T00:12:07.656Z,97.47
2017-07-29T00:13:08.924Z,98.24
2017-07-29T00:14:10.162Z,98.52
2017-07-29T00:15:11.491Z,98.14
2017-07-29T00:16:12.729Z,98.52
2017-07-29T00:17:14.014Z,98.14
2017-07-29T00:18:15.272Z,98.33
2017-07-29T00:19:16.559Z,98.05
2017-07-29T00:20:17.802Z,98.14
2017-07-29T00:21:19.047Z,98.24
2017-07-29T00:22:20.289Z,98.33
2017-07-29T00:23:21.555Z,98.72
2017-07-29T00:24:22.826Z,98.91
2017-07-29T00:25:24.073Z,98.91
2017-07-29T00:26:25.348Z,98.91
2017-07-29T00:27:26.581Z,99.1
2017-07-29T00:28:27.831Z,99.01
2017-07-29T00:29:29.123Z,99.48
2017-07-29T00:30:30.362Z,99.99
2017-07-29T00:31:31.660Z,99.48
2017-07-29T00:32:32.873Z,99.68
2017-07-29T00:33:34.116Z,99.77
2017-07-29T00:34:35.362Z,99.87
2017-07-29T00:35:36.605Z,99.99
2017-07-29T00:36:37.837Z,99.87
2017-07-29T00:37:39.213Z,99.48
2017-07-29T00:38:40.452Z,99.87
2017-07-29T00:39:41.694Z,99.99
2017-07-29T00:40:42.919Z,99.99
2017-07-29T00:41:44.155Z,99.99
2017-07-29T00:42:45.524Z,99.99
2017-07-29T00:43:46.881Z,99.99
2017-07-29T00:44:48.125Z,99.99
2017-07-29T00:45:49.366Z,99.99
2017-07-29T00:46:50.637Z,99.99
2017-07-29T00:47:51.880Z,99.99
2017-07-29T00:48:53.143Z,99.99
2017-07-29T00:49:54.397Z,99.99
2017-07-29T00:50:55.650Z,99.99
2017-07-29T00:51:56.892Z,99.99
2017-07-29T00:52:58.131Z,99.99
2017-07-29T00:53:59.391Z,99.99
2017-07-29T00:55:00.647Z,99.99
2017-07-29T00:56:01.878Z,99.99
2017-07-29T00:57:03.119Z,99.99
2017-07-29T00:58:04.356Z,99.96
2017-07-29T00:59:05.593Z,99.99
2017-07-29T01:00:06.835Z,99.48
2017-07-29T01:01:08.085Z,99.87
2017-07-29T01:02:09.332Z,99.68
2017-07-29T01:03:10.579Z,99.87
2017-07-29T01:04:11.931Z,99.29
2017-07-29T01:05:13.169Z,99.1
2017-07-29T01:06:14.408Z,98.62
2017-07-29T01:07:15.648Z,99.19
2017-07-29T01:08:16.933Z,98.81
2017-07-29T01:09:18.157Z,99.29
2017-07-29T01:10:19.486Z,99.1
2017-07-29T01:11:20.711Z,98.91
2017-07-29T01:12:21.954Z,99.01
2017-07-29T01:13:23.195Z,99.58
2017-07-29T01:14:24.456Z,98.72
2017-07-29T01:15:25.810Z,99.1
2017-07-29T01:16:27.051Z,98.72
2017-07-29T01:17:28.290Z,99.29
2017-07-29T01:18:29.543Z,98.81
2017-07-29T01:19:30.778Z,99.29
2017-07-29T01:20:32.057Z,98.91
2017-07-29T01:21:33.470Z,99.1
2017-07-29T01:22:34.698Z,99.01
2017-07-29T01:23:35.953Z,98.91
2017-07-29T01:24:37.173Z,99.01
2017-07-29T01:25:38.412Z,98.91
2017-07-29T01:26:39.665Z,98.72
2017-07-29T01:27:40.974Z,99.01
2017-07-29T01:28:42.199Z,99.01
2017-07-29T01:29:43.440Z,99.1
2017-07-29T01:30:44.699Z,98.72
2017-07-29T01:31:46.068Z,98.91
2017-07-29T01:32:47.379Z,98.33
2017-07-29T01:33:48.640Z,98.14
2017-07-29T01:34:49.865Z,98.43
2017-07-29T01:35:51.102Z,98.43
2017-07-29T01:36:52.358Z,98.33
2017-07-29T01:37:53.606Z,98.52
2017-07-29T01:38:54.865Z,97.85
2017-07-29T01:39:56.129Z,98
2017-07-29T01:40:57.371Z,98.1
2017-07-29T01:41:58.657Z,97.71
2017-07-29T01:42:59.886Z,98.1
2017-07-29T01:44:01.259Z,98
2017-07-29T01:45:02.493Z,98
2017-07-29T01:46:03.770Z,98.19
2017-07-29T01:47:05.050Z,97.52
2017-07-29T01:48:06.361Z,96.85
2017-07-29T01:49:07.537Z,96.99
2017-07-29T01:50:08.771Z,96.66
2017-07-29T01:51:10.074Z,96.85
2017-07-29T01:52:11.381Z,96.94
2017-07-29T01:53:12.648Z,97.33
2017-07-29T01:54:13.937Z,97.33
2017-07-29T01:55:15.158Z,97.14
2017-07-29T01:56:16.409Z,96.94
2017-07-29T01:57:17.762Z,96.94
2017-07-29T01:58:19.239Z,96.37
2017-07-29T01:59:20.454Z,96.75
2017-07-29T02:00:21.699Z,96.75
2017-07-29T02:01:22.932Z,96.75
2017-07-29T02:02:24.171Z,96.85
2017-07-29T02:03:25.544Z,96.66
2017-07-29T02:04:26.791Z,96.56
2017-07-29T02:05:28.048Z,96.85
2017-07-29T02:06:29.325Z,97.04
2017-07-29T02:07:30.582Z,96.27
2017-07-29T02:08:31.815Z,95.98
2017-07-29T02:09:33.074Z,96.85
2017-07-29T02:10:34.327Z,96.66
2017-07-29T02:11:35.604Z,96.47
2017-07-29T02:12:36.867Z,96.37
2017-07-29T02:13:38.116Z,96.08
2017-07-29T02:14:39.365Z,96.27
2017-07-29T02:15:40.612Z,96.27
2017-07-29T02:16:41.871Z,95.98
2017-07-29T02:17:43.131Z,95.51
2017-07-29T02:18:44.378Z,96.08
2017-07-29T02:19:45.650Z,95.7
2017-07-29T02:20:46.886Z,96.08
2017-07-29T02:21:48.140Z,95.21
2017-07-29T02:22:49.407Z,95.31
2017-07-29T02:23:50.636Z,95.21
2017-07-29T02:24:51.960Z,94.74
2017-07-29T02:25:53.192Z,94.45
2017-07-29T02:26:54.426Z,94.54
2017-07-29T02:27:55.671Z,94.84
2017-07-29T02:28:56.921Z,94.07
2017-07-29T02:29:58.239Z,94.17
2017-07-29T02:30:59.495Z,93.4
2017-07-29T02:32:00.785Z,93.4
2017-07-29T02:33:02.018Z,93.68
2017-07-29T02:34:03.255Z,93.92
2017-07-29T02:35:04.498Z,93.49
2017-07-29T02:36:05.855Z,93.59
2017-07-29T02:37:07.096Z,93.11
2017-07-29T02:38:08.367Z,92.82
2017-07-29T02:39:09.592Z,92.34
2017-07-29T02:40:10.834Z,92.58
2017-07-29T02:41:12.081Z,92.34
2017-07-29T02:42:13.401Z,92.29
2017-07-29T02:43:14.642Z,92.19
2017-07-29T02:44:15.879Z,92.29
2017-07-29T02:45:17.110Z,92.29
2017-07-29T02:46:18.351Z,92.48
2017-07-29T02:47:19.630Z,91.81
2017-07-29T02:48:20.865Z,91.91
2017-07-29T02:49:22.145Z,91.91
2017-07-29T02:50:23.383Z,91.81
2017-07-29T02:51:24.642Z,91.42
2017-07-29T02:52:25.881Z,91.24
2017-07-29T02:53:27.124Z,91.33
2017-07-29T02:54:28.361Z,91.62
2017-07-29T02:55:29.658Z,91.33
2017-07-29T02:56:30.962Z,91.24
2017-07-29T02:57:32.148Z,90.95
2017-07-29T02:58:33.383Z,90.95
2017-07-29T02:59:34.625Z,90.66
2017-07-29T03:00:35.952Z,90.47
2017-07-29T03:01:37.196Z,90.66
2017-07-29T03:02:38.438Z,90.56
2017-07-29T03:03:39.700Z,90.66
2017-07-29T03:04:40.972Z,90.85
2017-07-29T03:05:42.218Z,90.47
2017-07-29T03:06:43.449Z,90.37
2017-07-29T03:07:44.690Z,90.37
2017-07-29T03:08:46.118Z,90.37
2017-07-29T03:09:47.365Z,90.37
2017-07-29T03:10:48.616Z,90.37
2017-07-29T03:11:49.860Z,90.47
2017-07-29T03:12:51.098Z,90.18
2017-07-29T03:13:52.344Z,89.61
2017-07-29T03:14:53.613Z,89.99
2017-07-29T03:15:54.870Z,89.7
2017-07-29T03:16:56.098Z,89.79
2017-07-29T03:17:57.339Z,89.99
2017-07-29T03:18:58.588Z,89.7
2017-07-29T03:19:59.829Z,89.7
2017-07-29T03:21:01.090Z,89.79
2017-07-29T03:22:02.315Z,89.61
2017-07-29T03:23:03.593Z,89.12
2017-07-29T03:24:05.017Z,89.61
2017-07-29T03:25:06.252Z,89.61
2017-07-29T03:26:07.573Z,89.03
2017-07-29T03:27:08.826Z,88.84
2017-07-29T03:28:10.144Z,88.93
2017-07-29T03:29:11.369Z,88.93
2017-07-29T03:30:12.607Z,88.74
2017-07-29T03:31:13.864Z,89.41
2017-07-29T03:32:15.105Z,88.55
2017-07-29T03:33:16.356Z,88.59
2017-07-29T03:34:17.629Z,88.74
2017-07-29T03:35:18.865Z,89.03
2017-07-29T03:36:20.104Z,88.69
2017-07-29T03:37:21.353Z,88.55
2017-07-29T03:38:22.586Z,88.31
2017-07-29T03:39:23.841Z,88.02
2017-07-29T03:40:25.213Z,87.82
2017-07-29T03:41:26.450Z,87.82
2017-07-29T03:42:27.690Z,87.73
2017-07-29T03:43:28.922Z,87.98
2017-07-29T03:44:30.153Z,88.21
2017-07-29T03:45:31.409Z,88.11
2017-07-29T03:46:32.644Z,87.73
2017-07-29T03:47:33.887Z,87.25
2017-07-29T03:48:35.136Z,87.44
2017-07-29T03:49:36.373Z,87.54
2017-07-29T03:50:37.621Z,87.44
2017-07-29T03:51:38.876Z,87.63
2017-07-29T03:52:40.114Z,87.35
2017-07-29T03:53:41.343Z,87.44
2017-07-29T03:54:42.608Z,86.87
2017-07-29T03:55:43.813Z,86.68
2017-07-29T03:56:45.056Z,86.48
2017-07-29T03:57:46.295Z,86.48
2017-07-29T03:58:47.556Z,86.1
2017-07-29T03:59:48.804Z,86.19
2017-07-29T04:00:50.122Z,85.91
2017-07-29T04:01:51.373Z,86.19
2017-07-29T04:02:52.612Z,86.19
2017-07-29T04:03:53.853Z,85.52
2017-07-29T04:04:55.092Z,85.33
2017-07-29T04:05:56.341Z,85.52
2017-07-29T04:06:57.688Z,84.85
2017-07-29T04:07:58.959Z,85.24
2017-07-29T04:09:00.200Z,85.42
2017-07-29T04:10:01.439Z,85.14
2017-07-29T04:11:02.682Z,85.62
2017-07-29T04:12:03.968Z,85.04
2017-07-29T04:13:05.266Z,85.24
2017-07-29T04:14:06.826Z,85.24
2017-07-29T04:15:07.952Z,85.04
2017-07-29T04:16:09.191Z,84.75
2017-07-29T04:17:10.429Z,84.56
2017-07-29T04:18:11.659Z,85.14
2017-07-29T04:19:12.985Z,85.18
2017-07-29T04:20:14.217Z,84.7
2017-07-29T04:21:15.457Z,84.99
2017-07-29T04:22:16.697Z,84.7
2017-07-29T04:23:17.934Z,84.51
2017-07-29T04:24:19.177Z,84.6
2017-07-29T04:25:20.414Z,85.18
2017-07-29T04:26:21.663Z,84.22
2017-07-29T04:27:22.905Z,84.7
2017-07-29T04:28:24.138Z,84.51
2017-07-29T04:29:25.375Z,84.31
2017-07-29T04:30:26.628Z,84.8
2017-07-29T04:31:27.911Z,84.31
2017-07-29T04:32:29.270Z,83.93
2017-07-29T04:33:30.577Z,84.12
2017-07-29T04:34:31.826Z,84.03
2017-07-29T04:35:33.076Z,84.03
2017-07-29T04:36:34.316Z,84.03
2017-07-29T04:37:35.589Z,83.45
2017-07-29T04:38:36.840Z,83.74
2017-07-29T04:39:38.070Z,83.26
2017-07-29T04:40:39.306Z,83.26
2017-07-29T04:41:40.547Z,83.36
2017-07-29T04:42:41.840Z,83.07
2017-07-29T04:43:43.155Z,82.68
2017-07-29T04:44:44.385Z,82.4
2017-07-29T04:45:45.621Z,82.2
2017-07-29T04:46:46.945Z,82.49
2017-07-29T04:47:48.185Z,82.34
2017-07-29T04:48:49.438Z,82.15
2017-07-29T04:49:50.673Z,82.43
2017-07-29T04:50:51.931Z,81.67
2017-07-29T04:51:53.151Z,81.96
2017-07-29T04:52:54.390Z,81.96
2017-07-29T04:53:55.632Z,82.05
2017-07-29T04:54:56.881Z,81.86
2017-07-29T04:55:58.129Z,81.28
2017-07-29T04:56:59.421Z,81.28
2017-07-29T04:58:00.786Z,81.67
2017-07-29T04:59:01.925Z,81.28
2017-07-29T05:00:03.165Z,81.09
2017-07-29T05:01:04.401Z,80.9
2017-07-29T05:02:05.688Z,80.71
2017-07-29T05:03:06.967Z,81.19
2017-07-29T05:04:08.199Z,81.48
2017-07-29T05:05:09.434Z,80.61
2017-07-29T05:06:10.714Z,80.42
2017-07-29T05:07:11.957Z,79.79
2017-07-29T05:08:13.200Z,79.4
2017-07-29T05:09:14.539Z,80.07
2017-07-29T05:10:15.774Z,79.79
2017-07-29T05:11:17.015Z,79.3
2017-07-29T05:12:18.262Z,79.02
2017-07-29T05:13:19.517Z,79.11
2017-07-29T05:14:20.760Z,78.83
2017-07-29T05:15:22.028Z,79.21
2017-07-29T05:16:23.271Z,78.44
2017-07-29T05:17:24.519Z,77.96
2017-07-29T05:18:25.757Z,78.06
2017-07-29T05:19:27.005Z,77.96
2017-07-29T05:20:28.237Z,77.51
2017-07-29T05:21:29.501Z,77.23
2017-07-29T05:22:30.737Z,76.75
2017-07-29T05:23:31.987Z,76.75
2017-07-29T05:24:33.314Z,76.65
2017-07-29T05:25:34.551Z,76.26
2017-07-29T05:26:35.820Z,76.07
2017-07-29T05:27:37.057Z,75.63
2017-07-29T05:28:38.306Z,74.67
2017-07-29T05:29:39.718Z,74.51
2017-07-29T05:30:41.010Z,73.74
2017-07-29T05:31:42.228Z,72.91
2017-07-29T05:32:43.467Z,71.76
2017-07-29T05:33:44.709Z,71.12
2017-07-29T05:34:45.953Z,69.96
2017-07-29T05:35:47.201Z,68.8
2017-07-29T05:36:48.431Z,69.38
2017-07-29T05:37:49.673Z,69.09
2017-07-29T05:38:50.909Z,69.83
2017-07-29T05:39:52.152Z,70.15
2017-07-29T05:40:53.513Z,70.12
2017-07-29T05:41:54.760Z,70.5
2017-07-29T05:42:55.999Z,70.79
2017-07-29T05:43:57.236Z,70.5
2017-07-29T05:44:58.489Z,71.04
2017-07-29T05:45:59.716Z,71.04
2017-07-29T05:47:00.955Z,71.72
2017-07-29T05:48:02.184Z,72.01
2017-07-29T05:49:03.585Z,72.39
2017-07-29T05:50:04.827Z,72.2
2017-07-29T05:51:06.069Z,71.72
2017-07-29T05:52:07.299Z,71.53
2017-07-29T05:53:08.551Z,71.31
2017-07-29T05:54:09.794Z,68.84
2017-07-29T05:55:11.107Z,66.49
2017-07-29T05:56:12.346Z,64.5
2017-07-29T05:57:13.598Z,62.31
2017-07-29T05:58:14.844Z,62.05
2017-07-29T05:59:16.082Z,59.86
2017-07-29T06:00:17.356Z,57.98
2017-07-29T06:01:18.713Z,56.26
2017-07-29T06:02:19.959Z,54.58
2017-07-29T06:03:21.202Z,51.81
2017-07-29T06:04:22.457Z,50.41
2017-07-29T06:05:23.788Z,49.19
2017-07-29T06:06:25.188Z,46.69
2017-07-29T06:07:26.351Z,46.77
2017-07-29T06:08:27.700Z,46.64
2017-07-29T06:09:28.996Z,47.69
2017-07-29T06:10:30.233Z,48.18
2017-07-29T06:11:31.494Z,48.73
2017-07-29T06:12:32.744Z,48.73
2017-07-29T06:13:34.100Z,49.49
2017-07-29T06:14:35.339Z,50.43
2017-07-29T06:15:36.582Z,51.28
2017-07-29T06:16:37.877Z,51.74
2017-07-29T06:17:39.108Z,51.96
2017-07-29T06:18:40.434Z,51.98
2017-07-29T06:19:41.693Z,51.53
2017-07-29T06:20:42.973Z,50.38
2017-07-29T06:21:44.200Z,49.61
2017-07-29T06:22:45.445Z,48.75
2017-07-29T06:23:46.692Z,48.85
2017-07-29T06:24:48.017Z,48.93
2017-07-29T06:25:49.282Z,48.25
2017-07-29T06:26:50.531Z,48.57
2017-07-29T06:27:51.780Z,48.05
2017-07-29T06:28:53.037Z,48.15
2017-07-29T06:29:54.300Z,49.39
2017-07-29T06:30:55.551Z,49.97
2017-07-29T06:31:56.798Z,50.43
2017-07-29T06:32:58.047Z,50.65
2017-07-29T06:33:59.293Z,50.36
2017-07-29T06:35:00.543Z,50.14
2017-07-29T06:36:01.903Z,50.82
2017-07-29T06:37:03.206Z,50.36
2017-07-29T06:38:04.471Z,49.39
2017-07-29T06:39:05.721Z,49.51
2017-07-29T06:40:06.966Z,49.61
2017-07-29T06:41:08.202Z,49.32
2017-07-29T06:42:09.473Z,49.32
2017-07-29T06:43:10.736Z,49.19
2017-07-29T06:44:11.983Z,50.92
2017-07-29T06:45:13.214Z,49.8
2017-07-29T06:46:14.480Z,48.27
2017-07-29T06:47:15.695Z,46.57
2017-07-29T06:48:16.941Z,44.96
2017-07-29T06:49:18.193Z,43.23
2017-07-29T06:50:19.511Z,42.76
2017-07-29T06:51:20.913Z,42.57
2017-07-29T06:52:22.045Z,42.65
2017-07-29T06:53:23.294Z,43.89
2017-07-29T06:54:24.554Z,44.16
2017-07-29T06:55:25.788Z,45.31
2017-07-29T06:56:27.034Z,45.5
2017-07-29T06:57:28.327Z,45.21
2017-07-29T06:58:29.599Z,44.67
2017-07-29T06:59:30.853Z,43.84
2017-07-29T07:00:32.132Z,41.91
2017-07-29T07:01:33.378Z,40.19
2017-07-29T07:02:34.629Z,39.36
2017-07-29T07:03:35.899Z,37.6
2017-07-29T07:04:37.157Z,37.12
2017-07-29T07:05:38.406Z,36.85
2017-07-29T07:06:39.657Z,36.16
2017-07-29T07:07:40.923Z,36.38
2017-07-29T07:08:42.160Z,35.34
2017-07-29T07:09:43.444Z,34.3
2017-07-29T07:10:44.818Z,33.14
2017-07-29T07:11:46.052Z,32.45
2017-07-29T07:12:47.296Z,32.25
2017-07-29T07:13:48.548Z,32.73
2017-07-29T07:14:49.849Z,32.64
2017-07-29T07:15:51.178Z,31.89
2017-07-29T07:16:52.428Z,31.89
2017-07-29T07:17:53.675Z,31.84
2017-07-29T07:18:54.928Z,34.52
2017-07-29T07:19:56.155Z,35.6
2017-07-29T07:20:57.533Z,35.95
2017-07-29T07:21:58.795Z,37.11
2017-07-29T07:23:00.040Z,38.22
2017-07-29T07:24:01.285Z,39.94
2017-07-29T07:25:02.535Z,40.99
2017-07-29T07:26:03.883Z,43.07
2017-07-29T07:27:05.306Z,44.21
2017-07-29T07:28:06.519Z,45.82
2017-07-29T07:29:07.768Z,47.64
2017-07-29T07:30:09.027Z,48.95
2017-07-29T07:31:10.272Z,50.29
2017-07-29T07:32:11.569Z,51.13
2017-07-29T07:33:12.826Z,51.88
2017-07-29T07:34:14.076Z,53.31
2017-07-29T07:35:15.320Z,54.17
2017-07-29T07:36:16.558Z,54.17
2017-07-29T07:37:17.872Z,54.66
2017-07-29T07:38:19.110Z,54.57
2017-07-29T07:39:20.438Z,54.85
2017-07-29T07:40:21.769Z,55.05
2017-07-29T07:41:23.026Z,54.27
2017-07-29T07:42:24.279Z,54.17
2017-07-29T07:43:25.510Z,54.08
2017-07-29T07:44:26.752Z,54.27
2017-07-29T07:45:28.032Z,54.37
2017-07-29T07:46:29.298Z,54.39
2017-07-29T07:47:30.526Z,54.3
2017-07-29T07:48:31.769Z,54.3
2017-07-29T07:49:33.019Z,54.3
2017-07-29T07:50:34.267Z,54.66
2017-07-29T07:51:35.519Z,54.37
2017-07-29T07:52:36.766Z,54.57
2017-07-29T07:53:38.005Z,55.02
2017-07-29T07:54:39.260Z,55.6
2017-07-29T07:55:40.495Z,56.28
2017-07-29T07:56:41.814Z,56.25
2017-07-29T07:57:43.067Z,57.7
2017-07-29T07:58:44.362Z,57.7
2017-07-29T07:59:45.715Z,58.57
2017-07-29T08:00:46.950Z,58.76
2017-07-29T08:01:48.208Z,58.64
2017-07-29T08:02:49.448Z,59.02
2017-07-29T08:03:50.695Z,58.73
2017-07-29T08:04:51.929Z,59.51
2017-07-29T08:05:53.277Z,59.12
2017-07-29T08:06:54.558Z,59.41
2017-07-29T08:07:55.789Z,59.51
2017-07-29T08:08:57.032Z,59.67
2017-07-29T08:09:58.310Z,60.44
2017-07-29T08:10:59.587Z,60.35
2017-07-29T08:12:00.813Z,60.28
2017-07-29T08:13:02.068Z,60.47
2017-07-29T08:14:03.309Z,60.38
2017-07-29T08:15:04.554Z,59.6
2017-07-29T08:16:05.830Z,59.73
2017-07-29T08:17:07.066Z,58.37
2017-07-29T08:18:08.415Z,58.67
2017-07-29T08:19:09.766Z,58.28
2017-07-29T08:20:11.103Z,58.86
2017-07-29T08:21:12.342Z,59.44
2017-07-29T08:22:13.590Z,60.38
2017-07-29T08:23:14.832Z,60.38
2017-07-29T08:24:16.091Z,61.25
2017-07-29T08:25:17.429Z,60.96
2017-07-29T08:26:18.676Z,60.96
2017-07-29T08:27:19.955Z,60.41
2017-07-29T08:28:21.204Z,59.44
2017-07-29T08:29:22.459Z,58.7
2017-07-29T08:30:23.767Z,56.62
2017-07-29T08:31:25.011Z,55.58
2017-07-29T08:32:26.254Z,54.81
2017-07-29T08:33:27.491Z,54.16
2017-07-29T08:34:28.742Z,52.44
2017-07-29T08:35:29.999Z,51.59
2017-07-29T08:36:31.312Z,51.04
2017-07-29T08:37:32.560Z,51.14
2017-07-29T08:38:33.806Z,50.65
2017-07-29T08:39:35.045Z,50.56
2017-07-29T08:40:36.289Z,50.26
2017-07-29T08:41:37.554Z,50.29
2017-07-29T08:42:38.807Z,50.19
2017-07-29T08:43:40.053Z,50.77
2017-07-29T08:44:41.303Z,50.84
2017-07-29T08:45:42.543Z,50.82
2017-07-29T08:46:43.788Z,51.57
2017-07-29T08:47:45.047Z,52.44
2017-07-29T08:48:46.308Z,53.22
2017-07-29T08:49:47.649Z,53.29
2017-07-29T08:50:48.916Z,54.16
2017-07-29T08:51:50.158Z,54.74
2017-07-29T08:52:51.409Z,55.2
2017-07-29T08:53:52.677Z,55.3
2017-07-29T08:54:53.909Z,55.85
2017-07-29T08:55:55.243Z,56.43
2017-07-29T08:56:56.493Z,56.3
2017-07-29T08:57:57.750Z,57.66
2017-07-29T08:58:58.997Z,57.46
2017-07-29T09:00:00.338Z,57.08
2017-07-29T09:01:01.597Z,57.79
2017-07-29T09:02:02.843Z,56.72
2017-07-29T09:03:04.089Z,56.62
2017-07-29T09:04:05.337Z,56.16
2017-07-29T09:05:06.613Z,55.78
2017-07-29T09:06:07.871Z,55.88
2017-07-29T09:07:09.133Z,54.94
2017-07-29T09:08:10.380Z,54.26
2017-07-29T09:09:11.621Z,53.8
2017-07-29T09:10:12.902Z,54.28
2017-07-29T09:11:14.151Z,53.77
2017-07-29T09:12:15.400Z,54.26
2017-07-29T09:13:16.635Z,54.26
2017-07-29T09:14:17.968Z,54.45
2017-07-29T09:15:19.219Z,55.04
2017-07-29T09:16:20.469Z,55.22
2017-07-29T09:17:21.742Z,55.13
2017-07-29T09:18:22.984Z,55.42
2017-07-29T09:19:24.267Z,54.84
2017-07-29T09:20:25.517Z,54.28
2017-07-29T09:21:26.772Z,53.61
2017-07-29T09:22:28.130Z,53.7
2017-07-29T09:23:29.360Z,54.35
2017-07-29T09:24:30.602Z,54.45
2017-07-29T09:25:31.845Z,55.1
2017-07-29T09:26:33.277Z,55.78
2017-07-29T09:27:34.566Z,55.2
2017-07-29T09:28:36.086Z,55.68
2017-07-29T09:29:37.324Z,55
2017-07-29T09:30:38.642Z,55.58
2017-07-29T09:31:39.924Z,56.34
2017-07-29T09:32:41.172Z,56.46
2017-07-29T09:33:42.452Z,56.36
2017-07-29T09:34:43.669Z,56.56
2017-07-29T09:35:44.919Z,56.24
2017-07-29T09:36:46.239Z,56.46
2017-07-29T09:37:47.528Z,56.62
2017-07-29T09:38:48.790Z,57.79
2017-07-29T09:39:50.037Z,57.66
2017-07-29T09:40:51.277Z,57.98
2017-07-29T09:41:52.522Z,57.98
2017-07-29T09:42:53.829Z,58.17
2017-07-29T09:43:55.060Z,58.04
2017-07-29T09:44:56.309Z,58.07
2017-07-29T09:45:57.554Z,57.4
2017-07-29T09:46:58.805Z,57.88
2017-07-29T09:48:00.158Z,57.79
2017-07-29T09:49:01.399Z,58.14
2017-07-29T09:50:02.665Z,58.14
2017-07-29T09:51:04.044Z,58.63
2017-07-29T09:52:05.287Z,58.24
2017-07-29T09:53:06.507Z,58.34
2017-07-29T09:54:07.858Z,59.01
2017-07-29T09:55:09.111Z,58.44
2017-07-29T09:56:10.416Z,58.72
2017-07-29T09:57:11.679Z,59.4
2017-07-29T09:58:12.918Z,59.21
2017-07-29T09:59:14.167Z,59.47
2017-07-29T10:00:15.459Z,60.63
2017-07-29T10:01:16.691Z,61.11
2017-07-29T10:02:18.014Z,62.15
2017-07-29T10:03:19.299Z,61.66
2017-07-29T10:04:20.595Z,61.89
2017-07-29T10:05:21.823Z,61.79
2017-07-29T10:06:23.099Z,61.5
2017-07-29T10:07:24.343Z,61.79
2017-07-29T10:08:25.621Z,60.85
2017-07-29T10:09:26.912Z,60.08
2017-07-29T10:10:28.151Z,58.56
2017-07-29T10:11:29.396Z,57.91
2017-07-29T10:12:30.711Z,56.68
2017-07-29T10:13:31.961Z,56.41
2017-07-29T10:14:33.328Z,54.99
2017-07-29T10:15:34.567Z,53.75
2017-07-29T10:16:35.864Z,52.69
2017-07-29T10:17:37.101Z,52.59
2017-07-29T10:18:38.396Z,52.13
2017-07-29T10:19:39.748Z,51.75
2017-07-29T10:20:41.012Z,51.84
2017-07-29T10:21:42.248Z,52.03
2017-07-29T10:22:43.503Z,52.59
2017-07-29T10:23:44.753Z,52.47
2017-07-29T10:24:46.027Z,53.83
2017-07-29T10:25:47.271Z,54.02
2017-07-29T10:26:48.553Z,54.48
2017-07-29T10:27:49.955Z,54.19
2017-07-29T10:28:51.214Z,54.21
2017-07-29T10:29:52.452Z,54.67
2017-07-29T10:30:53.721Z,54.38
2017-07-29T10:31:54.970Z,54.77
2017-07-29T10:32:56.231Z,55.32
2017-07-29T10:33:57.472Z,55.22
2017-07-29T10:34:58.725Z,55.71
2017-07-29T10:35:59.967Z,55.81
2017-07-29T10:37:01.217Z,55.62
2017-07-29T10:38:02.466Z,55.9
2017-07-29T10:39:03.731Z,55.81
2017-07-29T10:40:04.976Z,55.83
2017-07-29T10:41:06.225Z,56.13
2017-07-29T10:42:07.453Z,55.32
2017-07-29T10:43:08.711Z,55.81
2017-07-29T10:44:10.016Z,56.03
2017-07-29T10:45:11.360Z,55.35
2017-07-29T10:46:12.587Z,54.86
2017-07-29T10:47:13.885Z,55.06
2017-07-29T10:48:15.134Z,54.96
2017-07-29T10:49:16.385Z,55.9
2017-07-29T10:50:17.662Z,55.81
2017-07-29T10:51:18.906Z,56.36
2017-07-29T10:52:20.202Z,57.53
2017-07-29T10:53:21.440Z,58.11
2017-07-29T10:54:22.690Z,58.2
2017-07-29T10:55:23.958Z,57.91
2017-07-29T10:56:25.210Z,58.27
2017-07-29T10:57:26.600Z,58.47
2017-07-29T10:58:27.924Z,59.43
2017-07-29T10:59:29.190Z,59.21
2017-07-29T11:00:30.434Z,60.27
2017-07-29T11:01:31.686Z,60.37
2017-07-29T11:02:32.925Z,60.47
2017-07-29T11:03:34.170Z,60.75
2017-07-29T11:04:35.473Z,60.24
2017-07-29T11:05:36.725Z,60.47
2017-07-29T11:06:37.979Z,60.95
2017-07-29T11:07:39.230Z,60.92
2017-07-29T11:08:40.470Z,60.75
2017-07-29T11:09:41.745Z,60.75
2017-07-29T11:10:43.090Z,61.15
2017-07-29T11:11:44.363Z,60.17
2017-07-29T11:12:45.590Z,60.37
2017-07-29T11:13:46.836Z,60.57
2017-07-29T11:14:48.083Z,60.27
2017-07-29T11:15:49.492Z,60.21
2017-07-29T11:16:50.744Z,60.11
2017-07-29T11:17:52.031Z,59.36
2017-07-29T11:18:53.279Z,58.78
2017-07-29T11:19:54.526Z,57.45
2017-07-29T11:20:55.933Z,56.97
2017-07-29T11:21:57.223Z,57.84
2017-07-29T11:22:58.462Z,56.41
2017-07-29T11:23:59.704Z,55.93
2017-07-29T11:25:00.975Z,55.83
2017-07-29T11:26:02.225Z,55.54
2017-07-29T11:27:03.606Z,55.35
2017-07-29T11:28:04.852Z,55.74
2017-07-29T11:29:06.187Z,55.74
2017-07-29T11:30:07.442Z,56.61
2017-07-29T11:31:08.696Z,56.39
2017-07-29T11:32:09.968Z,56.61
2017-07-29T11:33:11.224Z,56.71
2017-07-29T11:34:12.466Z,56.41
2017-07-29T11:35:13.706Z,56.41
2017-07-29T11:36:14.954Z,57.45
2017-07-29T11:37:16.201Z,57.07
2017-07-29T11:38:17.432Z,57.71
2017-07-29T11:39:18.682Z,58.11
2017-07-29T11:40:19.983Z,59.33
2017-07-29T11:41:21.290Z,59.14
2017-07-29T11:42:22.530Z,59.89
2017-07-29T11:43:23.777Z,60.47
2017-07-29T11:44:25.028Z,60.57
2017-07-29T11:45:26.279Z,60.57
2017-07-29T11:46:27.587Z,60.95
2017-07-29T11:47:28.828Z,61.05
2017-07-29T11:48:30.075Z,60.85
2017-07-29T11:49:31.312Z,60.75
2017-07-29T11:50:32.562Z,60.88
2017-07-29T11:51:33.846Z,60.52
2017-07-29T11:52:35.085Z,59.36
2017-07-29T11:53:36.341Z,59.27
2017-07-29T11:54:37.603Z,59.07
2017-07-29T11:55:38.858Z,58.81
2017-07-29T11:56:40.098Z,58.36
2017-07-29T11:57:41.352Z,57.87
2017-07-29T11:58:42.740Z,56.45
2017-07-29T11:59:43.979Z,55.11
2017-07-29T12:00:45.195Z,54.24
2017-07-29T12:01:46.441Z,54.24
2017-07-29T12:02:47.699Z,53.97
2017-07-29T12:03:48.952Z,53.95
2017-07-29T12:04:50.222Z,53.56
2017-07-29T12:05:51.488Z,53.69
2017-07-29T12:06:52.745Z,54.34
2017-07-29T12:07:53.988Z,53.56
2017-07-29T12:08:55.235Z,54.14
2017-07-29T12:09:56.484Z,54.41
2017-07-29T12:10:57.731Z,54.6
2017-07-29T12:11:58.975Z,55.16
2017-07-29T12:13:00.235Z,55.16
2017-07-29T12:14:01.479Z,55.96
2017-07-29T12:15:02.735Z,55.08
2017-07-29T12:16:03.972Z,54.8
2017-07-29T12:17:05.216Z,54.24
2017-07-29T12:18:06.463Z,54.5
2017-07-29T12:19:07.841Z,54.41
2017-07-29T12:20:09.092Z,54.31
2017-07-29T12:21:10.336Z,54.14
2017-07-29T12:22:11.589Z,54.31
2017-07-29T12:23:12.844Z,54.21
2017-07-29T12:24:14.147Z,55.08
2017-07-29T12:25:15.405Z,54.31
2017-07-29T12:26:16.648Z,54.31
2017-07-29T12:27:17.942Z,55.18
2017-07-29T12:28:19.186Z,55.08
2017-07-29T12:29:20.454Z,55.38
2017-07-29T12:30:21.805Z,55.83
2017-07-29T12:31:23.182Z,55.26
2017-07-29T12:32:24.306Z,56.23
2017-07-29T12:33:25.566Z,56.61
2017-07-29T12:34:26.803Z,56.81
2017-07-29T12:35:28.112Z,55.74
2017-07-29T12:36:29.363Z,56.2
2017-07-29T12:37:30.602Z,57.07
2017-07-29T12:38:31.844Z,56.39
2017-07-29T12:39:33.100Z,56.61
2017-07-29T12:40:34.349Z,56.71
2017-07-29T12:41:35.621Z,56.32
2017-07-29T12:42:36.866Z,55.93
2017-07-29T12:43:38.118Z,55.74
2017-07-29T12:44:39.397Z,55.83
2017-07-29T12:45:40.630Z,55.83
2017-07-29T12:46:41.884Z,55.74
2017-07-29T12:47:43.137Z,56.49
2017-07-29T12:48:44.379Z,56.29
2017-07-29T12:49:45.669Z,56.77
2017-07-29T12:50:46.927Z,56.94
2017-07-29T12:51:48.182Z,56.87
2017-07-29T12:52:49.428Z,57.75
2017-07-29T12:53:50.680Z,56.77
2017-07-29T12:54:52.091Z,56.32
2017-07-29T12:55:53.387Z,55.93
2017-07-29T12:56:54.632Z,55.16
2017-07-29T12:57:55.984Z,55.06
2017-07-29T12:58:57.224Z,55.47
2017-07-29T12:59:58.490Z,55.47
2017-07-29T13:00:59.849Z,54.99
2017-07-29T13:02:01.092Z,55.28
2017-07-29T13:03:02.350Z,55.38
2017-07-29T13:04:03.613Z,55.26
2017-07-29T13:05:04.882Z,55.83
2017-07-29T13:06:06.148Z,56.41
2017-07-29T13:07:07.406Z,56.13
2017-07-29T13:08:08.662Z,55.93
2017-07-29T13:09:10.024Z,56.32
2017-07-29T13:10:11.294Z,56.81
2017-07-29T13:11:12.552Z,56.77
2017-07-29T13:12:13.881Z,56.87